Time;durP1;ratioP1;P1;durP2;ratioP2;P2;SDS_P1;SDS_P2;PMS_P1;PMS_P2;Temp;Humidity;BMP_temperature;BMP_pressure;BME280_temperature;BME280_humidity;BME280_pressure;Samples;Min_cycle;Max_cycle;Signal;HPM_P1;HPM_P2
2023/08/07 00:02:50;;;;;;;4.27;0.80;;;13.60;99.90;;;;;;10095168;29;20244;-83
2023/08/07 00:07:53;;;;;;;4.13;1.53;;;13.40;99.90;;;;;;10108645;29;20235;-83
2023/08/07 00:12:55;;;;;;;1.90;1.03;;;13.40;99.90;;;;;;10104389;29;20284;-82
2023/08/07 00:17:58;;;;;;;0.67;0.60;;;13.40;99.90;;;;;;10116756;29;20319;-83
2023/08/07 00:23:00;;;;;;;1.20;1.10;;;13.40;99.90;;;;;;10132163;29;20654;-83
2023/08/07 00:28:03;;;;;;;1.57;1.17;;;13.40;99.90;;;;;;10131901;29;20305;-83
2023/08/07 00:33:06;;;;;;;1.43;0.80;;;13.30;99.90;;;;;;10092235;29;20248;-83
2023/08/07 00:38:09;;;;;;;1.40;1.07;;;13.30;99.90;;;;;;10111235;29;20318;-83
2023/08/07 00:43:11;;;;;;;3.13;0.97;;;13.40;99.90;;;;;;10113869;29;20758;-83
2023/08/07 00:48:16;;;;;;;1.10;1.00;;;13.40;99.90;;;;;;10131755;29;20299;-83
2023/08/07 00:53:18;;;;;;;1.93;1.03;;;13.40;99.90;;;;;;10131909;29;20249;-83
2023/08/07 00:58:21;;;;;;;1.23;0.70;;;13.40;99.90;;;;;;10130775;29;20264;-83
2023/08/07 01:03:24;;;;;;;1.67;1.10;;;13.40;99.90;;;;;;10131508;29;20665;-83
2023/08/07 01:08:27;;;;;;;1.57;1.00;;;13.40;99.90;;;;;;10114279;29;20299;-83
2023/08/07 01:13:42;;;;;;;5.27;1.13;;;13.40;99.90;;;;;;10098188;29;20247;-83
2023/08/07 01:18:46;;;;;;;1.57;1.33;;;13.30;99.90;;;;;;10130537;29;20758;-83
2023/08/07 01:23:49;;;;;;;1.20;1.00;;;13.40;99.90;;;;;;10129747;29;20311;-83
2023/08/07 01:29:10;;;;;;;0.80;0.80;;;13.40;99.90;;;;;;10140654;29;20290;-83
2023/08/07 01:34:18;;;;;;;1.03;0.93;;;13.40;99.90;;;;;;10130507;29;20243;-83
2023/08/07 01:39:22;;;;;;;1.10;1.00;;;13.30;99.90;;;;;;10129181;29;20263;-83
2023/08/07 01:44:24;;;;;;;2.10;1.20;;;13.40;99.90;;;;;;10130008;29;20291;-83
2023/08/07 01:49:27;;;;;;;3.37;1.30;;;13.40;99.90;;;;;;10129607;29;20654;-83
2023/08/07 01:54:29;;;;;;;3.83;1.07;;;13.40;99.90;;;;;;10129134;29;20235;-83
2023/08/07 01:59:32;;;;;;;1.48;1.20;;;13.60;99.90;;;;;;10128243;29;20275;-83
2023/08/07 02:04:34;;;;;;;1.67;1.02;;;13.50;99.90;;;;;;10112025;29;20247;-83
2023/08/07 02:09:37;;;;;;;1.37;1.07;;;13.60;99.90;;;;;;10111684;29;20278;-83
2023/08/07 02:14:39;;;;;;;1.40;1.00;;;13.40;99.90;;;;;;10097281;29;20308;-83
2023/08/07 02:19:42;;;;;;;0.63;0.60;;;13.30;99.90;;;;;;10089587;29;20268;-83
2023/08/07 02:24:45;;;;;;;0.70;0.60;;;13.50;99.90;;;;;;10089261;29;20301;-83
2023/08/07 02:29:47;;;;;;;1.60;1.00;;;13.40;99.90;;;;;;10090450;29;20304;-83
2023/08/07 02:34:49;;;;;;;1.40;1.17;;;13.40;99.90;;;;;;10118255;29;20243;-83
2023/08/07 02:39:53;;;;;;;3.17;1.30;;;13.20;99.90;;;;;;10088431;29;20724;-83
2023/08/07 02:44:56;;;;;;;0.83;0.60;;;13.10;99.90;;;;;;10088476;29;20228;-83
2023/08/07 02:49:59;;;;;;;2.90;1.10;;;13.10;99.90;;;;;;10089884;29;20243;-83
2023/08/07 02:55:02;;;;;;;3.07;1.40;;;13.10;99.90;;;;;;10120132;29;20303;-83
2023/08/07 03:00:06;;;;;;;2.77;1.10;;;13.10;99.90;;;;;;10127257;29;20275;-83
2023/08/07 03:05:08;;;;;;;5.17;1.50;;;13.10;99.90;;;;;;10113301;29;20296;-83
2023/08/07 03:10:11;;;;;;;2.07;1.37;;;13.10;99.90;;;;;;10134029;29;20247;-84
2023/08/07 03:15:14;;;;;;;1.50;0.87;;;13.10;99.90;;;;;;10117819;29;20240;-83
2023/08/07 03:20:17;;;;;;;1.80;1.13;;;13.10;99.90;;;;;;10134487;29;20651;-83
2023/08/07 03:25:19;;;;;;;1.43;1.10;;;13.00;99.90;;;;;;10118693;29;20216;-83
2023/08/07 03:30:22;;;;;;;3.92;1.30;;;13.10;99.90;;;;;;10117868;29;20212;-83
2023/08/07 03:35:25;;;;;;;4.82;1.13;;;13.70;99.90;;;;;;10116827;29;20307;-83
2023/08/07 03:40:27;;;;;;;2.83;1.50;;;13.40;99.90;;;;;;10102565;29;20264;-83
2023/08/07 03:45:30;;;;;;;1.30;0.82;;;13.10;99.90;;;;;;10134574;29;20268;-83
2023/08/07 03:50:36;;;;;;;2.13;0.90;;;13.10;99.90;;;;;;10117067;29;20244;-83
2023/08/07 03:55:41;;;;;;;4.60;1.43;;;12.90;99.90;;;;;;10133323;29;20248;-83
2023/08/07 04:00:44;;;;;;;2.70;1.30;;;12.80;99.90;;;;;;10110865;29;20324;-83
2023/08/07 04:05:51;;;;;;;3.35;1.20;;;12.80;99.90;;;;;;10078569;29;20236;-83
2023/08/07 04:11:05;;;;;;;2.07;1.30;;;12.90;99.90;;;;;;10094568;29;20248;-83
2023/08/07 04:16:10;;;;;;;1.60;1.23;;;12.80;99.90;;;;;;10094772;29;20296;-83
2023/08/07 04:21:12;;;;;;;1.30;1.10;;;12.80;99.90;;;;;;10062945;29;20306;-83
2023/08/07 04:26:15;;;;;;;0.70;0.50;;;12.80;99.90;;;;;;10092690;29;20533;-83
2023/08/07 04:31:17;;;;;;;2.05;0.82;;;13.20;99.90;;;;;;10091666;29;20237;-83
2023/08/07 04:36:20;;;;;;;2.00;1.13;;;13.20;99.90;;;;;;10093956;29;20289;-83
2023/08/07 04:41:24;;;;;;;1.27;0.90;;;13.30;99.90;;;;;;10092608;29;20663;-83
2023/08/07 04:46:26;;;;;;;4.85;1.20;;;13.40;99.90;;;;;;10093113;29;20292;-84
2023/08/07 04:51:31;;;;;;;1.40;1.02;;;13.50;99.90;;;;;;10089768;29;20288;-84
2023/08/07 04:56:33;;;;;;;1.80;1.30;;;13.20;99.90;;;;;;10091106;29;20677;-84
2023/08/07 05:01:36;;;;;;;2.30;1.43;;;13.20;99.90;;;;;;10090792;29;20270;-84
2023/08/07 05:07:04;;;;;;;2.77;1.07;;;13.10;99.90;;;;;;10088441;29;20667;-83
2023/08/07 05:12:07;;;;;;;1.47;0.90;;;14.20;99.90;;;;;;10089875;29;20233;-84
2023/08/07 05:17:10;;;;;;;3.87;0.93;;;14.80;99.90;;;;;;10073611;29;20244;-84
2023/08/07 05:22:12;;;;;;;1.30;0.95;;;15.30;99.90;;;;;;10090525;29;20672;-84
2023/08/07 05:27:15;;;;;;;1.17;0.98;;;15.70;99.90;;;;;;10088452;29;20658;-84
2023/08/07 05:32:17;;;;;;;2.90;1.30;;;15.90;99.90;;;;;;10089549;29;20271;-84
2023/08/07 05:37:20;;;;;;;2.38;0.98;;;16.00;99.90;;;;;;10127923;29;20265;-84
2023/08/07 05:42:22;;;;;;;1.35;0.80;;;16.20;99.90;;;;;;10090121;29;20324;-84
2023/08/07 05:47:25;;;;;;;5.07;0.93;;;16.50;99.90;;;;;;10074850;29;20264;-84
2023/08/07 05:52:27;;;;;;;1.88;0.73;;;16.90;99.90;;;;;;10090177;29;20233;-84
2023/08/07 05:57:30;;;;;;;1.48;1.15;;;17.00;99.90;;;;;;10098238;29;20296;-83
2023/08/07 06:02:33;;;;;;;2.95;1.65;;;17.10;99.90;;;;;;10127799;29;20263;-83
2023/08/07 06:07:35;;;;;;;1.38;1.08;;;17.80;99.90;;;;;;10128706;29;20240;-83
2023/08/07 06:12:38;;;;;;;1.30;0.85;;;17.70;99.90;;;;;;10128606;29;20299;-83
2023/08/07 06:17:40;;;;;;;1.90;0.95;;;17.90;99.90;;;;;;10128753;29;20691;-84
2023/08/07 06:22:43;;;;;;;2.08;0.80;;;18.00;99.90;;;;;;10111644;29;20264;-83
2023/08/07 06:27:46;;;;;;;1.40;0.88;;;18.50;99.90;;;;;;10126394;29;20248;-83
2023/08/07 06:32:48;;;;;;;0.98;0.77;;;18.50;99.90;;;;;;10124328;29;20268;-83
2023/08/07 06:37:51;;;;;;;1.23;0.98;;;18.60;99.90;;;;;;10110927;29;20243;-83
2023/08/07 06:42:54;;;;;;;1.17;1.05;;;18.70;99.90;;;;;;10121874;29;20264;-83
2023/08/07 06:47:56;;;;;;;1.75;1.23;;;18.60;99.90;;;;;;10112843;29;20244;-84
2023/08/07 06:52:59;;;;;;;2.65;0.70;;;18.70;99.90;;;;;;10126826;29;20288;-84
2023/08/07 06:58:02;;;;;;;2.45;1.23;;;18.90;99.90;;;;;;10116278;29;20323;-83
2023/08/07 07:03:04;;;;;;;1.02;0.63;;;19.10;99.90;;;;;;10133511;29;20263;-83
2023/08/07 07:08:07;;;;;;;1.20;0.95;;;19.50;99.90;;;;;;10117662;29;20370;-83
2023/08/07 07:13:09;;;;;;;1.73;1.15;;;19.30;99.90;;;;;;10133671;29;20295;-84
2023/08/07 07:18:12;;;;;;;0.82;0.43;;;19.30;99.90;;;;;;10133937;29;20295;-84
2023/08/07 07:23:15;;;;;;;3.25;1.02;;;19.10;99.90;;;;;;10132385;29;20279;-84
2023/08/07 07:28:17;;;;;;;1.92;0.80;;;19.00;99.90;;;;;;10133475;29;20295;-83
2023/08/07 07:33:20;;;;;;;1.23;1.00;;;19.20;99.90;;;;;;10132735;29;20240;-83
2023/08/07 07:38:22;;;;;;;1.20;0.90;;;19.30;99.70;;;;;;10133055;29;20236;-83
2023/08/07 07:43:25;;;;;;;2.63;1.45;;;19.30;99.90;;;;;;10132223;29;20315;-83
2023/08/07 07:48:28;;;;;;;1.60;1.10;;;19.40;99.90;;;;;;10128456;29;20263;-84
2023/08/07 07:53:31;;;;;;;2.90;1.33;;;19.50;99.80;;;;;;10129831;29;20244;-84
2023/08/07 07:58:33;;;;;;;1.98;1.58;;;19.50;97.90;;;;;;10118949;29;20331;-84
2023/08/07 08:03:36;;;;;;;1.02;0.88;;;19.60;97.80;;;;;;10124666;29;20315;-83
2023/08/07 08:08:38;;;;;;;1.73;1.08;;;19.70;98.70;;;;;;10130416;29;20224;-84
2023/08/07 08:13:41;;;;;;;6.13;1.70;;;19.60;99.10;;;;;;10131131;29;20649;-84
2023/08/07 08:18:43;;;;;;;2.00;1.70;;;19.50;98.20;;;;;;10130107;29;20316;-83
2023/08/07 08:23:46;;;;;;;1.58;1.10;;;19.80;98.50;;;;;;10131368;29;20792;-84
2023/08/07 08:28:49;;;;;;;2.05;1.40;;;19.80;99.40;;;;;;10130321;29;20244;-84
2023/08/07 08:33:51;;;;;;;1.65;1.55;;;19.80;99.70;;;;;;10129359;29;20752;-84
2023/08/07 08:38:54;;;;;;;1.48;1.13;;;19.60;97.60;;;;;;10119094;29;20231;-83
2023/08/07 08:43:59;;;;;;;1.45;1.35;;;19.90;99.70;;;;;;10105722;29;20236;-83
2023/08/07 08:49:03;;;;;;;2.80;1.60;;;19.70;99.90;;;;;;10121326;29;20277;-84
2023/08/07 08:54:07;;;;;;;1.23;0.98;;;19.60;99.90;;;;;;10128495;29;20228;-84
2023/08/07 08:59:11;;;;;;;2.92;1.38;;;19.60;99.40;;;;;;10112953;29;20264;-83
2023/08/07 09:04:14;;;;;;;1.52;0.82;;;19.60;99.80;;;;;;10112225;29;20307;-83
2023/08/07 09:09:19;;;;;;;2.60;1.50;;;19.50;98.60;;;;;;10127171;29;20280;-84
2023/08/07 09:14:26;;;;;;;2.03;1.63;;;19.30;99.90;;;;;;10144414;29;20275;-83
2023/08/07 09:19:32;;;;;;;1.65;1.33;;;19.20;99.90;;;;;;10152799;29;20256;-83
2023/08/07 09:24:35;;;;;;;2.75;1.15;;;19.40;99.90;;;;;;10129722;29;20256;-83
2023/08/07 09:29:40;;;;;;;3.03;1.60;;;19.90;99.90;;;;;;10128620;29;20235;-84
2023/08/07 09:34:43;;;;;;;2.35;1.90;;;20.20;99.90;;;;;;10115648;29;20272;-83
2023/08/07 09:39:46;;;;;;;1.80;1.67;;;20.20;94.80;;;;;;10127170;29;20288;-83
2023/08/07 09:44:48;;;;;;;3.30;1.92;;;20.20;98.00;;;;;;10128108;29;20925;-83
2023/08/07 09:49:55;;;;;;;1.90;1.30;;;20.30;96.40;;;;;;10124543;29;20239;-83
2023/08/07 09:54:57;;;;;;;2.03;1.60;;;20.20;98.50;;;;;;10129560;29;20239;-83
2023/08/07 10:00:00;;;;;;;4.88;2.13;;;20.20;97.00;;;;;;10127635;29;20275;-83
2023/08/07 10:05:13;;;;;;;4.70;1.88;;;20.40;94.30;;;;;;10129731;29;20280;-84
2023/08/07 10:10:17;;;;;;;1.42;1.20;;;20.40;96.60;;;;;;10110520;29;20628;-85
2023/08/07 10:15:20;;;;;;;4.18;1.27;;;20.30;97.90;;;;;;10111920;29;20240;-84
2023/08/07 10:20:26;;;;;;;1.88;1.10;;;20.20;95.60;;;;;;10096374;29;20292;-84
2023/08/07 10:25:29;;;;;;;1.02;0.80;;;20.10;96.60;;;;;;10124140;29;20276;-84
2023/08/07 10:30:33;;;;;;;1.75;1.17;;;20.20;98.10;;;;;;10126417;29;20247;-84
2023/08/07 10:35:35;;;;;;;5.28;1.73;;;20.40;94.00;;;;;;10110628;29;20793;-84
2023/08/07 10:41:01;;;;;;;2.00;1.35;;;20.30;95.20;;;;;;10124682;29;20259;-84
2023/08/07 10:46:10;;;;;;;2.42;1.70;;;20.30;96.80;;;;;;10133880;29;20231;-84
2023/08/07 10:51:17;;;;;;;1.20;0.88;;;20.30;95.30;;;;;;10130384;29;20645;-84
2023/08/07 10:56:36;;;;;;;1.75;1.08;;;20.20;96.90;;;;;;10142436;29;20317;-84
2023/08/07 11:01:39;;;;;;;1.33;1.05;;;20.20;97.70;;;;;;10127708;29;20251;-85
2023/08/07 11:06:44;;;;;;;3.00;1.23;;;20.20;98.00;;;;;;10126925;29;20240;-85
2023/08/07 11:11:48;;;;;;;1.42;1.10;;;20.10;95.40;;;;;;10127877;29;20232;-85
2023/08/07 11:16:52;;;;;;;2.08;1.55;;;20.10;98.50;;;;;;10123342;29;20318;-84
2023/08/07 11:21:57;;;;;;;3.85;1.50;;;20.00;97.80;;;;;;10109545;29;20267;-85
2023/08/07 11:26:59;;;;;;;2.10;1.48;;;20.20;95.90;;;;;;10127962;29;20236;-83
2023/08/07 11:32:08;;;;;;;5.32;1.73;;;20.40;97.20;;;;;;10095376;29;20248;-83
2023/08/07 11:37:17;;;;;;;3.28;1.70;;;20.40;95.30;;;;;;10094965;29;20705;-84
2023/08/07 11:42:21;;;;;;;1.77;1.35;;;20.40;94.90;;;;;;10103657;29;20708;-83
2023/08/07 11:47:24;;;;;;;2.47;1.50;;;20.40;96.40;;;;;;10133712;29;20235;-83
2023/08/07 11:52:27;;;;;;;4.90;1.20;;;20.50;96.20;;;;;;10131986;29;20291;-83
2023/08/07 11:57:29;;;;;;;2.95;1.88;;;20.30;97.10;;;;;;10130645;29;20823;-83
2023/08/07 12:02:35;;;;;;;3.08;2.08;;;20.20;94.20;;;;;;10111179;29;20262;-83
2023/08/07 12:07:38;;;;;;;1.42;1.20;;;20.40;94.10;;;;;;10130379;29;20832;-84
2023/08/07 12:12:43;;;;;;;2.63;1.20;;;20.50;95.50;;;;;;10131872;29;20236;-84
2023/08/07 12:17:46;;;;;;;1.02;0.93;;;20.40;92.30;;;;;;10132397;29;20291;-84
2023/08/07 12:22:49;;;;;;;2.03;1.10;;;20.30;93.80;;;;;;10129684;29;20319;-84
2023/08/07 12:27:52;;;;;;;1.75;1.38;;;20.30;96.10;;;;;;10114163;29;20244;-84
2023/08/07 12:32:55;;;;;;;1.52;1.20;;;20.20;95.60;;;;;;10148450;29;20252;-84
2023/08/07 12:37:58;;;;;;;1.77;1.63;;;20.10;95.20;;;;;;10113481;29;20291;-84
2023/08/07 12:43:00;;;;;;;1.67;1.38;;;19.90;95.70;;;;;;10115102;29;20267;-84
2023/08/07 12:48:04;;;;;;;4.03;1.17;;;19.80;96.30;;;;;;10123058;29;20292;-84
2023/08/07 12:53:07;;;;;;;2.22;1.67;;;19.60;95.40;;;;;;10127440;29;20243;-84
2023/08/07 12:58:10;;;;;;;1.40;1.20;;;19.40;97.30;;;;;;10131035;29;20335;-84
2023/08/07 13:03:13;;;;;;;2.15;1.15;;;19.50;98.50;;;;;;10125303;29;20260;-84
2023/08/07 13:08:16;;;;;;;3.13;1.60;;;19.40;97.70;;;;;;10112659;29;20231;-84
2023/08/07 13:13:18;;;;;;;2.53;1.65;;;19.40;96.00;;;;;;10123302;29;20236;-84
2023/08/07 13:18:21;;;;;;;1.73;1.63;;;19.30;93.50;;;;;;10129441;29;20661;-86
2023/08/07 13:23:23;;;;;;;2.03;1.70;;;19.30;99.90;;;;;;10106768;29;20259;-84
2023/08/07 13:28:26;;;;;;;1.75;1.65;;;19.40;99.90;;;;;;10128560;29;20268;-84
2023/08/07 13:33:28;;;;;;;1.60;1.27;;;19.50;99.90;;;;;;10122817;29;20371;-84
2023/08/07 13:38:31;;;;;;;2.53;1.85;;;19.60;99.90;;;;;;10090657;29;20304;-84
2023/08/07 13:43:33;;;;;;;2.17;1.48;;;19.60;99.90;;;;;;10093990;29;20256;-83
2023/08/07 13:48:36;;;;;;;2.30;1.75;;;19.70;99.90;;;;;;10126327;29;20675;-83
2023/08/07 13:53:41;;;;;;;1.90;1.70;;;19.80;99.90;;;;;;10128184;29;20257;-83
2023/08/07 13:58:44;;;;;;;1.83;1.58;;;19.80;99.90;;;;;;10128988;29;20263;-84
2023/08/07 14:03:46;;;;;;;2.08;1.42;;;20.00;99.90;;;;;;10122857;29;20252;-84
2023/08/07 14:08:49;;;;;;;1.83;1.52;;;20.10;99.00;;;;;;10089090;29;20277;-84
2023/08/07 14:13:51;;;;;;;1.98;1.77;;;20.00;98.50;;;;;;10089306;29;20221;-84
2023/08/07 14:18:54;;;;;;;3.38;1.52;;;20.00;99.00;;;;;;10097809;29;20287;-84
2023/08/07 14:23:57;;;;;;;3.92;1.95;;;20.00;99.60;;;;;;10127291;29;20252;-84
2023/08/07 14:28:59;;;;;;;1.88;1.55;;;19.90;98.80;;;;;;10093016;29;20262;-84
2023/08/07 14:34:02;;;;;;;2.15;1.45;;;19.80;99.30;;;;;;10107394;29;20767;-84
2023/08/07 14:39:05;;;;;;;2.20;1.33;;;19.80;99.20;;;;;;10105414;29;20236;-84
2023/08/07 14:44:07;;;;;;;2.05;1.60;;;19.90;99.10;;;;;;10125088;29;20320;-84
2023/08/07 14:49:10;;;;;;;1.90;1.27;;;20.00;99.90;;;;;;10126869;29;20274;-84
2023/08/07 14:54:13;;;;;;;3.28;1.83;;;20.10;99.10;;;;;;10125622;29;20297;-83
2023/08/07 14:59:16;;;;;;;3.25;1.70;;;20.00;99.90;;;;;;10106922;29;20334;-84
2023/08/07 15:04:18;;;;;;;1.63;1.50;;;19.90;99.80;;;;;;10132735;29;20303;-84
2023/08/07 15:09:21;;;;;;;3.05;1.80;;;20.00;99.50;;;;;;10133561;29;20272;-84
2023/08/07 15:14:23;;;;;;;1.85;1.63;;;20.00;97.40;;;;;;10135129;29;20271;-85
2023/08/07 15:19:26;;;;;;;1.50;1.25;;;20.10;99.90;;;;;;10133741;29;20243;-84
2023/08/07 15:24:29;;;;;;;2.40;0.95;;;20.30;95.70;;;;;;10135958;29;20699;-84
2023/08/07 15:29:31;;;;;;;1.60;1.38;;;20.60;95.00;;;;;;10121382;29;20767;-84
2023/08/07 15:34:34;;;;;;;2.80;1.55;;;20.30;91.60;;;;;;10120295;29;20634;-84
2023/08/07 15:39:36;;;;;;;2.67;1.45;;;20.30;95.10;;;;;;10136236;29;20236;-84
2023/08/07 15:44:39;;;;;;;2.35;1.35;;;19.90;95.00;;;;;;10116204;29;20267;-84
2023/08/07 15:49:44;;;;;;;2.72;1.35;;;20.10;96.70;;;;;;10132726;29;20696;-84
2023/08/07 15:54:47;;;;;;;2.47;1.55;;;20.10;97.10;;;;;;10116644;29;20251;-84
2023/08/07 15:59:49;;;;;;;9.55;2.90;;;20.00;95.50;;;;;;10130981;29;20319;-84
2023/08/07 16:04:52;;;;;;;2.97;1.90;;;19.80;94.30;;;;;;10133402;29;20873;-84
2023/08/07 16:09:55;;;;;;;1.63;1.05;;;19.70;94.30;;;;;;10114652;29;20244;-84
2023/08/07 16:14:58;;;;;;;3.75;1.75;;;19.70;95.80;;;;;;10131653;29;20236;-84
2023/08/07 16:20:01;;;;;;;1.80;1.30;;;19.80;96.90;;;;;;10108476;29;20695;-84
2023/08/07 16:25:04;;;;;;;5.65;4.32;;;19.60;95.80;;;;;;10131678;29;20287;-84
2023/08/07 16:30:07;;;;;;;54.42;29.17;;;19.80;97.60;;;;;;10132251;29;20232;-83
2023/08/07 16:35:09;;;;;;;3.42;2.13;;;19.80;96.30;;;;;;10130143;29;20244;-84
2023/08/07 16:40:12;;;;;;;13.75;6.25;;;19.60;92.60;;;;;;10112923;29;20243;-84
2023/08/07 16:45:15;;;;;;;20.08;11.68;;;19.50;94.40;;;;;;10131396;29;20263;-84
2023/08/07 16:50:17;;;;;;;97.80;44.65;;;19.50;95.20;;;;;;10099195;29;20311;-84
2023/08/07 16:55:20;;;;;;;26.45;14.95;;;19.50;97.60;;;;;;10129806;29;20239;-84
2023/08/07 17:00:23;;;;;;;63.95;32.17;;;19.60;96.50;;;;;;10113800;29;20331;-84
2023/08/07 17:05:26;;;;;;;31.77;17.38;;;19.60;96.90;;;;;;10129887;29;20354;-84
2023/08/07 17:10:28;;;;;;;40.83;21.30;;;19.60;96.70;;;;;;10128873;29;21046;-84
2023/08/07 17:15:36;;;;;;;41.33;22.63;;;19.70;96.60;;;;;;10125619;29;20232;-84
2023/08/07 17:20:39;;;;;;;60.88;26.42;;;20.00;96.90;;;;;;10102737;29;20704;-84
2023/08/07 17:25:41;;;;;;;71.97;33.83;;;20.10;97.60;;;;;;9789249;29;9999858;-84
2023/08/07 17:30:44;;;;;;;49.17;27.98;;;20.00;97.70;;;;;;10125522;29;20268;-84
2023/08/07 17:35:47;;;;;;;62.88;31.75;;;20.00;96.40;;;;;;10109647;29;20291;-84
2023/08/07 17:40:49;;;;;;;53.20;27.75;;;20.10;97.50;;;;;;10110104;29;20702;-84
2023/08/07 17:45:52;;;;;;;63.47;30.80;;;20.00;96.80;;;;;;10125818;29;20870;-84
2023/08/07 17:50:54;;;;;;;52.60;25.98;;;19.70;97.70;;;;;;10125663;29;20767;-84
2023/08/07 17:55:59;;;;;;;51.90;25.55;;;19.70;97.90;;;;;;10126970;29;20235;-84
2023/08/07 18:01:02;;;;;;;49.95;27.35;;;19.60;98.60;;;;;;10108095;29;20268;-84
2023/08/07 18:06:05;;;;;;;38.28;21.95;;;19.60;99.00;;;;;;10124111;29;20315;-84
2023/08/07 18:11:07;;;;;;;46.70;23.38;;;19.40;99.40;;;;;;10108977;29;20288;-85
2023/08/07 18:16:10;;;;;;;43.17;23.85;;;19.60;99.10;;;;;;10126787;29;20682;-84
2023/08/07 18:21:13;;;;;;;46.95;24.73;;;19.60;99.40;;;;;;10125398;29;20376;-84
2023/08/07 18:26:15;;;;;;;23.77;12.23;;;19.60;99.70;;;;;;10123861;29;20260;-84
2023/08/07 18:31:18;;;;;;;40.17;22.50;;;19.20;97.60;;;;;;10107634;29;20228;-84
2023/08/07 18:36:21;;;;;;;44.65;22.77;;;19.20;99.90;;;;;;10130970;29;20255;-84
2023/08/07 18:41:23;;;;;;;42.45;24.17;;;19.20;99.90;;;;;;10136644;29;20239;-85
2023/08/07 18:46:26;;;;;;;40.42;20.65;;;19.10;99.90;;;;;;10135435;29;20236;-85
2023/08/07 18:51:29;;;;;;;31.45;17.38;;;18.90;99.90;;;;;;10124466;29;20715;-85
2023/08/07 18:56:32;;;;;;;39.40;19.83;;;18.90;99.90;;;;;;10140762;29;20272;-85
2023/08/07 19:01:35;;;;;;;40.50;22.08;;;18.80;99.90;;;;;;10123476;29;20239;-85
2023/08/07 19:06:38;;;;;;;29.45;15.88;;;18.80;99.90;;;;;;10139312;29;20652;-85
2023/08/07 19:11:41;;;;;;;37.85;20.83;;;18.60;99.90;;;;;;10139941;29;20268;-84
2023/08/07 19:16:45;;;;;;;30.55;13.60;;;18.60;99.90;;;;;;10139448;29;20301;-85
2023/08/07 19:21:47;;;;;;;32.55;18.60;;;18.70;99.90;;;;;;10124541;29;20247;-84
2023/08/07 19:26:50;;;;;;;21.52;11.13;;;18.90;99.90;;;;;;10122264;29;20292;-85
2023/08/07 19:31:52;;;;;;;27.08;14.10;;;19.00;99.90;;;;;;10137574;29;20248;-85
2023/08/07 19:36:55;;;;;;;10.50;6.70;;;19.00;99.70;;;;;;10139974;29;20299;-86
2023/08/07 19:41:58;;;;;;;14.45;9.75;;;18.70;95.20;;;;;;10123416;29;20719;-86
2023/08/07 19:47:01;;;;;;;14.73;9.00;;;18.70;99.90;;;;;;10132699;29;20295;-86
2023/08/07 19:52:04;;;;;;;22.38;13.27;;;18.90;99.90;;;;;;10123949;29;20303;-85
2023/08/07 19:57:07;;;;;;;22.10;11.93;;;19.10;99.90;;;;;;10111036;29;21010;-85
2023/08/07 20:02:09;;;;;;;11.88;7.18;;;18.90;99.30;;;;;;10126542;29;20783;-85
2023/08/07 20:07:12;;;;;;;11.80;7.20;;;18.90;98.20;;;;;;10129932;29;20279;-85
2023/08/07 20:12:16;;;;;;;19.02;10.15;;;18.90;96.90;;;;;;10133776;29;20303;-85
2023/08/07 20:17:19;;;;;;;15.98;9.10;;;18.90;99.90;;;;;;10130569;29;20743;-85
2023/08/07 20:22:21;;;;;;;11.20;7.00;;;18.90;97.10;;;;;;10115960;29;20323;-86
2023/08/07 20:27:24;;;;;;;12.95;7.90;;;18.70;98.50;;;;;;10129003;29;20237;-86
2023/08/07 20:32:26;;;;;;;16.10;8.60;;;18.70;99.90;;;;;;10114913;29;20641;-86
2023/08/07 20:37:29;;;;;;;11.40;7.45;;;18.80;99.90;;;;;;10130190;29;20244;-86
2023/08/07 20:42:31;;;;;;;12.55;7.45;;;18.80;98.90;;;;;;10119323;29;20264;-86
2023/08/07 20:47:34;;;;;;;13.45;8.45;;;18.80;94.90;;;;;;10128649;29;20661;-86
2023/08/07 20:52:37;;;;;;;16.15;9.32;;;18.60;97.30;;;;;;10113474;29;20698;-86
2023/08/07 20:57:39;;;;;;;9.73;6.43;;;18.90;99.90;;;;;;10129859;29;21057;-86
2023/08/07 21:02:42;;;;;;;17.83;8.50;;;18.80;99.20;;;;;;10135973;29;20292;-86
2023/08/07 21:07:44;;;;;;;17.40;9.00;;;18.70;98.00;;;;;;10126410;29;20267;-85
2023/08/07 21:12:47;;;;;;;15.50;7.90;;;18.50;98.60;;;;;;10129733;29;20303;-87
2023/08/07 21:17:50;;;;;;;13.75;5.35;;;18.50;99.90;;;;;;10108166;29;20256;-87
2023/08/07 21:22:53;;;;;;;16.75;8.73;;;18.50;99.50;;;;;;10117839;29;20648;-87
2023/08/07 21:27:56;;;;;;;10.25;7.03;;;18.30;99.20;;;;;;10124967;29;20228;-87
2023/08/07 21:32:58;;;;;;;14.05;7.25;;;18.40;99.90;;;;;;10128470;29;20252;-87
2023/08/07 21:38:01;;;;;;;11.32;6.95;;;18.50;99.90;;;;;;10129244;29;20700;-87
2023/08/07 21:43:03;;;;;;;9.82;6.60;;;18.40;99.10;;;;;;10129153;29;20255;-87
2023/08/07 21:48:06;;;;;;;16.63;7.63;;;18.60;98.80;;;;;;10127826;29;20239;-87
2023/08/07 21:53:09;;;;;;;11.02;6.60;;;18.30;99.90;;;;;;10112262;29;20252;-87
2023/08/07 21:58:12;;;;;;;8.93;5.43;;;18.40;99.90;;;;;;10109779;29;20316;-87
2023/08/07 22:03:15;;;;;;;9.23;6.05;;;18.30;95.80;;;;;;10125596;29;20319;-87
2023/08/07 22:08:17;;;;;;;9.45;6.32;;;18.30;99.90;;;;;;10111236;29;20663;-87
2023/08/07 22:13:20;;;;;;;10.82;7.13;;;18.20;96.90;;;;;;10127514;29;20239;-87
2023/08/07 22:18:23;;;;;;;9.23;5.90;;;18.10;99.90;;;;;;10126304;29;20295;-89
2023/08/07 22:23:26;;;;;;;10.35;6.50;;;18.20;99.80;;;;;;10126405;29;20315;-86
2023/08/07 22:28:29;;;;;;;7.90;5.97;;;18.30;99.70;;;;;;10110294;29;20651;-87
2023/08/07 22:33:32;;;;;;;10.10;6.55;;;18.20;98.20;;;;;;10084361;29;20333;-87
2023/08/07 22:38:34;;;;;;;11.45;5.82;;;17.80;98.00;;;;;;10140200;29;20639;-87
2023/08/07 22:43:37;;;;;;;9.70;5.00;;;17.90;99.90;;;;;;10123054;29;20335;-87
2023/08/07 22:48:39;;;;;;;7.22;5.55;;;18.10;99.90;;;;;;10106317;29;20248;-87
2023/08/07 22:53:42;;;;;;;10.15;6.38;;;18.20;97.00;;;;;;10122804;29;20239;-87
2023/08/07 22:58:46;;;;;;;9.73;4.13;;;18.10;98.70;;;;;;10107377;29;20346;-87
2023/08/07 23:03:48;;;;;;;17.10;5.10;;;18.00;97.90;;;;;;10126239;29;20264;-87
2023/08/07 23:08:51;;;;;;;7.53;4.85;;;18.30;99.20;;;;;;10123438;29;20280;-87
2023/08/07 23:13:54;;;;;;;9.40;5.20;;;18.30;99.40;;;;;;10104651;29;20240;-87
2023/08/07 23:18:57;;;;;;;10.55;5.88;;;18.30;98.50;;;;;;10126972;29;20263;-87
2023/08/07 23:23:59;;;;;;;8.07;5.38;;;18.40;99.90;;;;;;10125624;29;20259;-87
2023/08/07 23:29:02;;;;;;;9.95;5.50;;;18.30;99.90;;;;;;10131220;29;20228;-88
2023/08/07 23:34:05;;;;;;;7.72;4.15;;;18.20;99.10;;;;;;10134008;29;20299;-87
2023/08/07 23:39:08;;;;;;;9.13;5.22;;;17.90;99.40;;;;;;10115383;29;20700;-87
2023/08/07 23:44:11;;;;;;;8.68;4.28;;;18.10;96.10;;;;;;10137471;29;20263;-87
2023/08/07 23:49:13;;;;;;;7.53;4.82;;;18.00;99.90;;;;;;10118569;29;20296;-87
2023/08/07 23:54:16;;;;;;;9.07;4.50;;;17.80;99.90;;;;;;10094268;29;20244;-87
2023/08/07 23:59:19;;;;;;;5.68;3.28;;;18.00;99.90;;;;;;10095493;29;20646;-87
